AFR085 LFML-LFKJ
Flight info
| Callsign | AFR085 |
|---|---|
| Flight time | 1h 8m |
| Altitude | 23000 |
| Route | TINOT Z154 RUBAS |
| Aircraft | A320/M-SDE3FGHIRWY/LB1 |
Departure
| Time | 2026-04-28 20:35 |
|---|---|
| Airport | Marseille Provence Airport (LFML) |
Arrival
| Time | 2026-04-28 21:43 |
|---|---|
| Airport | Ajaccio Napoléon Bonaparte airport (LFKJ) |
| Time | Latitude | Longitude | Altitude | Speed | Heading |
|---|---|---|---|---|---|
| 2026-04-28 20:11 | 43.43973 | 5.22208 | 42 ft | 0 kts | 62° |
| 2026-04-28 20:26 | 43.43972 | 5.22206 | 41 ft | 1 kts | 62° |
| 2026-04-28 20:26 | 43.43964 | 5.22185 | 41 ft | 3 kts | 62° |
| 2026-04-28 20:26 | 43.43955 | 5.22161 | 39 ft | 3 kts | 62° |
| 2026-04-28 20:26 | 43.43944 | 5.22138 | 41 ft | 3 kts | 40° |
| 2026-04-28 20:27 | 43.43931 | 5.22127 | 40 ft | 3 kts | 346° |
| 2026-04-28 20:27 | 43.43922 | 5.22133 | 38 ft | 1 kts | 314° |
| 2026-04-28 20:27 | 43.43911 | 5.22149 | 38 ft | 2 kts | 314° |
| 2026-04-28 20:27 | 43.43907 | 5.22153 | 39 ft | 1 kts | 314° |
| 2026-04-28 20:29 | 43.43913 | 5.22145 | 38 ft | 5 kts | 314° |
| 2026-04-28 20:30 | 43.43969 | 5.22067 | 40 ft | 15 kts | 314° |
| 2026-04-28 20:30 | 43.43976 | 5.21963 | 38 ft | 11 kts | 233° |
| 2026-04-28 20:30 | 43.43919 | 5.21882 | 38 ft | 13 kts | 223° |
| 2026-04-28 20:30 | 43.43929 | 5.21776 | 36 ft | 13 kts | 309° |
| 2026-04-28 20:31 | 43.43981 | 5.21674 | 34 ft | 13 kts | 272° |
| 2026-04-28 20:31 | 43.43930 | 5.21567 | 34 ft | 15 kts | 231° |
| 2026-04-28 20:31 | 43.43955 | 5.21438 | 31 ft | 17 kts | 313° |
| 2026-04-28 20:31 | 43.44039 | 5.21315 | 28 ft | 20 kts | 313° |
| 2026-04-28 20:32 | 43.44145 | 5.21168 | 24 ft | 24 kts | 314° |
| 2026-04-28 20:32 | 43.44251 | 5.21015 | 20 ft | 21 kts | 310° |
| 2026-04-28 20:32 | 43.44328 | 5.20837 | 19 ft | 22 kts | 309° |
| 2026-04-28 20:32 | 43.44430 | 5.20692 | 18 ft | 22 kts | 314° |
| 2026-04-28 20:33 | 43.44541 | 5.20532 | 18 ft | 24 kts | 313° |
| 2026-04-28 20:33 | 43.44656 | 5.20367 | 18 ft | 19 kts | 314° |
| 2026-04-28 20:33 | 43.44630 | 5.20231 | 18 ft | 16 kts | 220° |
| 2026-04-28 20:33 | 43.44539 | 5.20265 | 19 ft | 5 kts | 134° |
| 2026-04-28 20:34 | 43.44534 | 5.20272 | 19 ft | 5 kts | 134° |
| 2026-04-28 20:34 | 43.44347 | 5.20534 | 20 ft | 79 kts | 134° |
| 2026-04-28 20:34 | 43.43805 | 5.21307 | 36 ft | 141 kts | 134° |
| 2026-04-28 20:34 | 43.43034 | 5.22414 | 359 ft | 167 kts | 133° |
| 2026-04-28 20:35 | 43.42227 | 5.23564 | 1181 ft | 166 kts | 133° |
| 2026-04-28 20:35 | 43.41433 | 5.24676 | 2024 ft | 163 kts | 133° |
| 2026-04-28 20:35 | 43.40473 | 5.25673 | 2464 ft | 184 kts | 147° |
| 2026-04-28 20:35 | 43.39252 | 5.26536 | 2865 ft | 210 kts | 150° |
| 2026-04-28 20:36 | 43.37883 | 5.27530 | 3358 ft | 235 kts | 150° |
| 2026-04-28 20:36 | 43.36400 | 5.28676 | 4033 ft | 251 kts | 149° |
| 2026-04-28 20:36 | 43.34865 | 5.29894 | 4966 ft | 258 kts | 148° |
| 2026-04-28 20:36 | 43.33300 | 5.31154 | 5907 ft | 263 kts | 149° |
| 2026-04-28 20:37 | 43.31652 | 5.32288 | 6831 ft | 268 kts | 160° |
| 2026-04-28 20:37 | 43.29814 | 5.32836 | 7683 ft | 274 kts | 175° |
| 2026-04-28 20:37 | 43.27895 | 5.32891 | 8624 ft | 277 kts | 179° |
| 2026-04-28 20:37 | 43.25950 | 5.32927 | 9529 ft | 282 kts | 179° |
| 2026-04-28 20:38 | 43.23964 | 5.32970 | 10316 ft | 291 kts | 179° |
| 2026-04-28 20:38 | 43.21855 | 5.33019 | 10646 ft | 315 kts | 180° |
| 2026-04-28 20:38 | 43.19575 | 5.33072 | 10918 ft | 339 kts | 180° |
| 2026-04-28 20:38 | 43.17159 | 5.33130 | 11446 ft | 351 kts | 180° |
| 2026-04-28 20:39 | 43.14706 | 5.33189 | 12239 ft | 354 kts | 180° |
| 2026-04-28 20:39 | 43.12228 | 5.33273 | 12992 ft | 359 kts | 176° |
| 2026-04-28 20:39 | 43.09775 | 5.34056 | 13695 ft | 367 kts | 158° |
| 2026-04-28 20:39 | 43.07615 | 5.35953 | 14367 ft | 375 kts | 139° |
| 2026-04-28 20:40 | 43.05927 | 5.38647 | 15012 ft | 380 kts | 129° |
| 2026-04-28 20:40 | 43.04272 | 5.41559 | 15667 ft | 385 kts | 129° |
| 2026-04-28 20:40 | 43.02652 | 5.44438 | 16314 ft | 389 kts | 129° |
| 2026-04-28 20:40 | 43.00995 | 5.47390 | 16924 ft | 393 kts | 129° |
| 2026-04-28 20:41 | 42.99319 | 5.50367 | 17535 ft | 398 kts | 129° |
| 2026-04-28 20:41 | 42.97616 | 5.53378 | 18142 ft | 402 kts | 130° |
| 2026-04-28 20:41 | 42.95894 | 5.56413 | 18678 ft | 406 kts | 130° |
| 2026-04-28 20:41 | 42.94154 | 5.59470 | 19219 ft | 410 kts | 130° |
| 2026-04-28 20:42 | 42.92395 | 5.62555 | 19748 ft | 413 kts | 130° |
| 2026-04-28 20:42 | 42.90625 | 5.65655 | 20277 ft | 416 kts | 130° |
| 2026-04-28 20:42 | 42.88836 | 5.68781 | 20797 ft | 419 kts | 130° |
| 2026-04-28 20:42 | 42.87037 | 5.71923 | 21293 ft | 422 kts | 130° |
| 2026-04-28 20:43 | 42.85217 | 5.75096 | 21796 ft | 426 kts | 130° |
| 2026-04-28 20:43 | 42.83382 | 5.78295 | 22295 ft | 429 kts | 130° |
| 2026-04-28 20:43 | 42.81561 | 5.81466 | 22780 ft | 432 kts | 130° |
| 2026-04-28 20:43 | 42.79702 | 5.84694 | 23018 ft | 434 kts | 130° |
| 2026-04-28 20:44 | 42.77783 | 5.87985 | 23043 ft | 438 kts | 131° |
| 2026-04-28 20:44 | 42.75851 | 5.91253 | 23045 ft | 450 kts | 131° |
| 2026-04-28 20:44 | 42.73923 | 5.94574 | 23037 ft | 454 kts | 130° |
| 2026-04-28 20:44 | 42.71973 | 5.97973 | 23038 ft | 456 kts | 130° |
| 2026-04-28 20:45 | 42.70025 | 6.01387 | 23040 ft | 456 kts | 130° |
| 2026-04-28 20:45 | 42.68078 | 6.04795 | 23040 ft | 456 kts | 130° |
| 2026-04-28 20:45 | 42.66127 | 6.08193 | 23040 ft | 456 kts | 130° |
| 2026-04-28 20:45 | 42.64166 | 6.11583 | 23030 ft | 455 kts | 130° |
| 2026-04-28 20:46 | 42.62209 | 6.14956 | 23028 ft | 455 kts | 130° |
| 2026-04-28 20:46 | 42.60247 | 6.18328 | 23027 ft | 455 kts | 130° |
| 2026-04-28 20:46 | 42.58283 | 6.21696 | 23026 ft | 455 kts | 130° |
| 2026-04-28 20:46 | 42.56317 | 6.25065 | 23025 ft | 455 kts | 130° |
| 2026-04-28 20:47 | 42.54382 | 6.28385 | 23024 ft | 455 kts | 130° |
| 2026-04-28 20:47 | 42.52420 | 6.31751 | 23022 ft | 455 kts | 130° |
| 2026-04-28 20:47 | 42.50460 | 6.35112 | 23022 ft | 455 kts | 130° |
| 2026-04-28 20:47 | 42.48498 | 6.38477 | 23021 ft | 454 kts | 130° |
| 2026-04-28 20:48 | 42.46536 | 6.41837 | 23023 ft | 454 kts | 130° |
| 2026-04-28 20:48 | 42.44570 | 6.45193 | 23022 ft | 454 kts | 131° |
| 2026-04-28 20:48 | 42.42607 | 6.48539 | 23011 ft | 454 kts | 131° |
| 2026-04-28 20:48 | 42.40638 | 6.51888 | 23018 ft | 454 kts | 131° |
| 2026-04-28 20:49 | 42.38734 | 6.55292 | 23020 ft | 455 kts | 126° |
| 2026-04-28 20:49 | 42.37196 | 6.59051 | 23021 ft | 457 kts | 116° |
| 2026-04-28 20:49 | 42.36067 | 6.63085 | 23022 ft | 459 kts | 111° |
| 2026-04-28 20:49 | 42.35008 | 6.67154 | 23022 ft | 458 kts | 111° |
| 2026-04-28 20:50 | 42.33952 | 6.71163 | 23024 ft | 458 kts | 111° |
| 2026-04-28 20:50 | 42.32875 | 6.75226 | 23019 ft | 458 kts | 112° |
| 2026-04-28 20:50 | 42.31795 | 6.79281 | 23019 ft | 458 kts | 112° |
| 2026-04-28 20:50 | 42.30715 | 6.83329 | 23021 ft | 458 kts | 112° |
| 2026-04-28 20:51 | 42.29632 | 6.87381 | 23022 ft | 458 kts | 112° |
| 2026-04-28 20:51 | 42.28550 | 6.91434 | 23026 ft | 458 kts | 112° |
| 2026-04-28 20:51 | 42.27474 | 6.95476 | 23027 ft | 458 kts | 112° |
| 2026-04-28 20:51 | 42.26761 | 6.98154 | 23025 ft | 458 kts | 112° |
| 2026-04-28 20:52 | 42.25321 | 7.03561 | 23030 ft | 457 kts | 112° |
| 2026-04-28 20:52 | 42.24242 | 7.07598 | 23028 ft | 457 kts | 112° |
| 2026-04-28 20:52 | 42.23159 | 7.11626 | 23028 ft | 457 kts | 112° |
| 2026-04-28 20:52 | 42.22071 | 7.15655 | 23028 ft | 457 kts | 112° |
| 2026-04-28 20:53 | 42.19887 | 7.23713 | 23024 ft | 457 kts | 112° |
| 2026-04-28 20:53 | 42.18798 | 7.27736 | 23024 ft | 457 kts | 112° |
| 2026-04-28 20:53 | 42.17709 | 7.31757 | 23025 ft | 457 kts | 112° |
| 2026-04-28 20:54 | 42.16621 | 7.35778 | 23018 ft | 457 kts | 112° |
| 2026-04-28 20:54 | 42.15544 | 7.39751 | 23020 ft | 456 kts | 112° |
| 2026-04-28 20:54 | 42.14453 | 7.43767 | 23020 ft | 456 kts | 112° |
| 2026-04-28 20:54 | 42.13379 | 7.47724 | 23035 ft | 442 kts | 112° |
| 2026-04-28 20:55 | 42.12328 | 7.51593 | 23038 ft | 436 kts | 112° |
| 2026-04-28 20:55 | 42.11281 | 7.55425 | 23035 ft | 435 kts | 112° |
| 2026-04-28 20:55 | 42.10235 | 7.59235 | 23032 ft | 434 kts | 112° |
| 2026-04-28 20:55 | 42.09185 | 7.63050 | 23035 ft | 433 kts | 112° |
| 2026-04-28 20:56 | 42.08137 | 7.66854 | 23035 ft | 433 kts | 112° |
| 2026-04-28 20:56 | 42.07089 | 7.70661 | 23035 ft | 433 kts | 112° |
| 2026-04-28 20:56 | 42.06041 | 7.74466 | 23035 ft | 433 kts | 112° |
| 2026-04-28 20:56 | 42.04994 | 7.78261 | 23035 ft | 433 kts | 113° |
| 2026-04-28 20:57 | 42.03943 | 7.82053 | 23035 ft | 433 kts | 113° |
| 2026-04-28 20:57 | 42.02891 | 7.85845 | 23034 ft | 432 kts | 113° |
| 2026-04-28 20:57 | 42.01841 | 7.89637 | 23030 ft | 432 kts | 113° |
| 2026-04-28 20:57 | 42.00793 | 7.93429 | 23028 ft | 432 kts | 113° |
| 2026-04-28 20:58 | 41.99757 | 7.97168 | 23023 ft | 432 kts | 113° |
| 2026-04-28 20:58 | 41.98728 | 8.00969 | 23022 ft | 433 kts | 109° |
| 2026-04-28 20:58 | 41.98097 | 8.04941 | 22767 ft | 438 kts | 98° |
| 2026-04-28 20:58 | 41.97998 | 8.09022 | 22191 ft | 433 kts | 92° |
| 2026-04-28 20:59 | 41.97996 | 8.13042 | 21652 ft | 427 kts | 92° |
| 2026-04-28 20:59 | 41.97992 | 8.17002 | 21086 ft | 421 kts | 92° |
| 2026-04-28 20:59 | 41.97980 | 8.20916 | 20498 ft | 417 kts | 92° |
| 2026-04-28 20:59 | 41.97962 | 8.24805 | 20112 ft | 415 kts | 92° |
| 2026-04-28 21:00 | 41.97938 | 8.28681 | 19954 ft | 413 kts | 92° |
| 2026-04-28 21:00 | 41.97921 | 8.31231 | 19616 ft | 410 kts | 92° |
| 2026-04-28 21:00 | 41.97896 | 8.35056 | 19030 ft | 408 kts | 91° |
| 2026-04-28 21:00 | 41.97870 | 8.38852 | 18488 ft | 404 kts | 91° |
| 2026-04-28 21:01 | 41.97843 | 8.42618 | 17916 ft | 401 kts | 91° |
| 2026-04-28 21:01 | 41.97815 | 8.46354 | 17354 ft | 398 kts | 92° |
| 2026-04-28 21:01 | 41.97422 | 8.49982 | 16816 ft | 391 kts | 111° |
| 2026-04-28 21:01 | 41.96085 | 8.53103 | 16304 ft | 382 kts | 134° |
| 2026-04-28 21:02 | 41.94229 | 8.55588 | 15985 ft | 373 kts | 137° |
| 2026-04-28 21:02 | 41.92371 | 8.57997 | 15550 ft | 369 kts | 137° |
| 2026-04-28 21:02 | 41.90559 | 8.60338 | 15138 ft | 354 kts | 137° |
| 2026-04-28 21:02 | 41.88680 | 8.62453 | 14692 ft | 350 kts | 150° |
| 2026-04-28 21:03 | 41.86485 | 8.63626 | 14504 ft | 329 kts | 170° |
| 2026-04-28 21:03 | 41.84284 | 8.63818 | 14300 ft | 311 kts | 187° |
| 2026-04-28 21:03 | 41.82220 | 8.63153 | 14082 ft | 303 kts | 204° |
| 2026-04-28 21:03 | 41.80418 | 8.61739 | 13768 ft | 299 kts | 220° |
| 2026-04-28 21:04 | 41.79023 | 8.59735 | 13214 ft | 295 kts | 237° |
| 2026-04-28 21:04 | 41.78135 | 8.57317 | 12845 ft | 294 kts | 252° |
| 2026-04-28 21:04 | 41.77761 | 8.54641 | 12506 ft | 293 kts | 267° |
| 2026-04-28 21:04 | 41.77942 | 8.51949 | 11970 ft | 290 kts | 282° |
| 2026-04-28 21:05 | 41.78679 | 8.49441 | 11340 ft | 290 kts | 298° |
| 2026-04-28 21:05 | 41.79903 | 8.47272 | 10842 ft | 291 kts | 310° |
| 2026-04-28 21:05 | 41.81304 | 8.45322 | 10219 ft | 290 kts | 313° |
| 2026-04-28 21:05 | 41.82757 | 8.43487 | 9789 ft | 280 kts | 315° |
| 2026-04-28 21:06 | 41.84149 | 8.41790 | 9611 ft | 262 kts | 315° |
| 2026-04-28 21:06 | 41.85483 | 8.40159 | 9354 ft | 256 kts | 314° |
| 2026-04-28 21:06 | 41.86787 | 8.38540 | 9050 ft | 254 kts | 314° |
| 2026-04-28 21:06 | 41.88166 | 8.37054 | 8751 ft | 255 kts | 325° |
| 2026-04-28 21:07 | 41.89762 | 8.35993 | 8501 ft | 258 kts | 339° |
| 2026-04-28 21:07 | 41.91519 | 8.35480 | 8249 ft | 260 kts | 354° |
| 2026-04-28 21:07 | 41.93307 | 8.35577 | 8006 ft | 261 kts | 9° |
| 2026-04-28 21:07 | 41.95044 | 8.36286 | 7754 ft | 261 kts | 25° |
| 2026-04-28 21:08 | 41.96593 | 8.37559 | 7511 ft | 260 kts | 40° |
| 2026-04-28 21:08 | 41.97837 | 8.39299 | 7263 ft | 258 kts | 56° |
| 2026-04-28 21:08 | 41.98711 | 8.41379 | 7071 ft | 254 kts | 71° |
| 2026-04-28 21:08 | 41.99176 | 8.43648 | 7013 ft | 251 kts | 85° |
| 2026-04-28 21:09 | 41.99228 | 8.45977 | 7022 ft | 248 kts | 99° |
| 2026-04-28 21:09 | 41.98870 | 8.48225 | 7023 ft | 245 kts | 113° |
| 2026-04-28 21:09 | 41.98138 | 8.50270 | 7024 ft | 242 kts | 126° |
| 2026-04-28 21:09 | 41.97105 | 8.52035 | 7025 ft | 240 kts | 135° |
| 2026-04-28 21:10 | 41.95938 | 8.53634 | 7025 ft | 239 kts | 139° |
| 2026-04-28 21:10 | 41.94725 | 8.55171 | 7026 ft | 239 kts | 140° |
| 2026-04-28 21:10 | 41.93504 | 8.56687 | 7026 ft | 239 kts | 140° |
| 2026-04-28 21:10 | 41.92282 | 8.58202 | 7027 ft | 239 kts | 140° |
| 2026-04-28 21:11 | 41.91081 | 8.59699 | 7027 ft | 239 kts | 140° |
| 2026-04-28 21:11 | 41.89862 | 8.61224 | 7027 ft | 239 kts | 142° |
| 2026-04-28 21:11 | 41.88441 | 8.62285 | 7026 ft | 234 kts | 168° |
| 2026-04-28 21:11 | 41.86837 | 8.62298 | 7024 ft | 231 kts | 196° |
| 2026-04-28 21:12 | 41.85431 | 8.61291 | 7026 ft | 232 kts | 222° |
| 2026-04-28 21:12 | 41.84540 | 8.59494 | 7026 ft | 235 kts | 250° |
| 2026-04-28 21:12 | 41.84394 | 8.57318 | 7023 ft | 234 kts | 277° |
| 2026-04-28 21:12 | 41.85021 | 8.55359 | 7023 ft | 229 kts | 305° |
| 2026-04-28 21:13 | 41.86127 | 8.53810 | 7025 ft | 230 kts | 313° |
| 2026-04-28 21:13 | 41.87266 | 8.52354 | 7024 ft | 229 kts | 314° |
| 2026-04-28 21:13 | 41.88433 | 8.50886 | 7028 ft | 229 kts | 314° |
| 2026-04-28 21:13 | 41.89600 | 8.49420 | 7028 ft | 230 kts | 314° |
| 2026-04-28 21:14 | 41.90832 | 8.48055 | 7019 ft | 232 kts | 329° |
| 2026-04-28 21:14 | 41.92387 | 8.47470 | 7024 ft | 236 kts | 359° |
| 2026-04-28 21:14 | 41.93981 | 8.47950 | 6929 ft | 238 kts | 29° |
| 2026-04-28 21:14 | 41.95186 | 8.49408 | 6680 ft | 233 kts | 60° |
| 2026-04-28 21:15 | 41.95714 | 8.51407 | 6451 ft | 225 kts | 89° |
| 2026-04-28 21:15 | 41.95510 | 8.53437 | 6198 ft | 217 kts | 116° |
| 2026-04-28 21:15 | 41.94691 | 8.55091 | 5951 ft | 211 kts | 136° |
| 2026-04-28 21:15 | 41.93651 | 8.56484 | 5694 ft | 211 kts | 139° |
| 2026-04-28 21:16 | 41.92586 | 8.57836 | 5449 ft | 210 kts | 139° |
| 2026-04-28 21:16 | 41.91533 | 8.59156 | 5202 ft | 210 kts | 139° |
| 2026-04-28 21:16 | 41.90470 | 8.60491 | 5034 ft | 208 kts | 139° |
| 2026-04-28 21:16 | 41.89354 | 8.61710 | 5002 ft | 206 kts | 155° |
| 2026-04-28 21:17 | 41.87974 | 8.62111 | 5006 ft | 205 kts | 185° |
| 2026-04-28 21:17 | 41.86651 | 8.61436 | 5004 ft | 207 kts | 217° |
| 2026-04-28 21:17 | 41.85811 | 8.59871 | 5006 ft | 213 kts | 250° |
| 2026-04-28 21:17 | 41.85763 | 8.57888 | 5003 ft | 219 kts | 284° |
| 2026-04-28 21:18 | 41.86584 | 8.56163 | 5012 ft | 224 kts | 314° |
| 2026-04-28 21:18 | 41.87722 | 8.54718 | 5008 ft | 225 kts | 315° |
| 2026-04-28 21:18 | 41.88867 | 8.53276 | 5009 ft | 226 kts | 315° |
| 2026-04-28 21:18 | 41.90014 | 8.51830 | 5006 ft | 226 kts | 315° |
| 2026-04-28 21:19 | 41.91222 | 8.50487 | 4994 ft | 227 kts | 333° |
| 2026-04-28 21:19 | 41.92755 | 8.50127 | 5001 ft | 227 kts | 11° |
| 2026-04-28 21:19 | 41.94132 | 8.51061 | 5005 ft | 223 kts | 49° |
| 2026-04-28 21:19 | 41.94822 | 8.52859 | 5007 ft | 217 kts | 85° |
| 2026-04-28 21:20 | 41.94635 | 8.54810 | 5006 ft | 211 kts | 118° |
| 2026-04-28 21:20 | 41.93747 | 8.56296 | 5010 ft | 208 kts | 139° |
| 2026-04-28 21:20 | 41.92688 | 8.57626 | 5008 ft | 209 kts | 139° |
| 2026-04-28 21:20 | 41.91617 | 8.58980 | 5009 ft | 209 kts | 139° |
| 2026-04-28 21:21 | 41.90576 | 8.60301 | 5008 ft | 209 kts | 139° |
| 2026-04-28 21:21 | 41.89482 | 8.61581 | 5001 ft | 207 kts | 151° |
| 2026-04-28 21:21 | 41.88123 | 8.62106 | 5006 ft | 205 kts | 182° |
| 2026-04-28 21:21 | 41.86772 | 8.61555 | 5004 ft | 207 kts | 213° |
| 2026-04-28 21:22 | 41.85862 | 8.60071 | 5007 ft | 212 kts | 246° |
| 2026-04-28 21:22 | 41.85721 | 8.58106 | 5004 ft | 218 kts | 280° |
| 2026-04-28 21:22 | 41.86459 | 8.56323 | 5007 ft | 224 kts | 315° |
| 2026-04-28 21:22 | 41.87237 | 8.55407 | 5010 ft | 226 kts | 317° |
| 2026-04-28 21:23 | 41.88780 | 8.53494 | 5009 ft | 226 kts | 315° |
| 2026-04-28 21:23 | 41.89913 | 8.52035 | 5007 ft | 226 kts | 314° |
| 2026-04-28 21:23 | 41.91084 | 8.50627 | 4996 ft | 227 kts | 327° |
| 2026-04-28 21:23 | 41.92568 | 8.50094 | 5002 ft | 227 kts | 6° |
| 2026-04-28 21:24 | 41.94002 | 8.50867 | 5003 ft | 224 kts | 44° |
| 2026-04-28 21:24 | 41.94799 | 8.52591 | 5008 ft | 218 kts | 81° |
| 2026-04-28 21:24 | 41.94724 | 8.54558 | 5005 ft | 211 kts | 114° |
| 2026-04-28 21:24 | 41.93889 | 8.56127 | 5013 ft | 207 kts | 139° |
| 2026-04-28 21:25 | 41.92833 | 8.57459 | 5013 ft | 208 kts | 139° |
| 2026-04-28 21:25 | 41.91774 | 8.58796 | 5010 ft | 208 kts | 139° |
| 2026-04-28 21:25 | 41.90718 | 8.60132 | 5008 ft | 208 kts | 139° |
| 2026-04-28 21:25 | 41.89647 | 8.61440 | 5006 ft | 208 kts | 147° |
| 2026-04-28 21:26 | 41.88321 | 8.62101 | 5003 ft | 205 kts | 178° |
| 2026-04-28 21:26 | 41.86944 | 8.61692 | 5004 ft | 206 kts | 209° |
| 2026-04-28 21:26 | 41.85959 | 8.60342 | 5006 ft | 210 kts | 241° |
| 2026-04-28 21:26 | 41.85686 | 8.58415 | 5006 ft | 217 kts | 275° |
| 2026-04-28 21:27 | 41.86296 | 8.56569 | 5006 ft | 223 kts | 310° |
| 2026-04-28 21:27 | 41.87419 | 8.55105 | 5009 ft | 225 kts | 315° |
| 2026-04-28 21:27 | 41.88563 | 8.53661 | 5010 ft | 226 kts | 315° |
| 2026-04-28 21:27 | 41.89709 | 8.52214 | 5007 ft | 226 kts | 315° |
| 2026-04-28 21:28 | 41.90871 | 8.50791 | 5002 ft | 227 kts | 322° |
| 2026-04-28 21:28 | 41.92334 | 8.50085 | 5001 ft | 227 kts | 0° |
| 2026-04-28 21:28 | 41.93817 | 8.50680 | 5003 ft | 225 kts | 39° |
| 2026-04-28 21:28 | 41.94731 | 8.52307 | 5006 ft | 219 kts | 76° |
| 2026-04-28 21:29 | 41.94789 | 8.54262 | 5008 ft | 212 kts | 109° |
| 2026-04-28 21:29 | 41.94048 | 8.55914 | 5010 ft | 207 kts | 138° |
| 2026-04-28 21:29 | 41.92994 | 8.57250 | 5011 ft | 208 kts | 139° |
| 2026-04-28 21:29 | 41.91939 | 8.58585 | 5010 ft | 209 kts | 139° |
| 2026-04-28 21:30 | 41.90883 | 8.59923 | 5006 ft | 209 kts | 139° |
| 2026-04-28 21:30 | 41.89823 | 8.61251 | 5005 ft | 208 kts | 142° |
| 2026-04-28 21:30 | 41.88539 | 8.62066 | 5004 ft | 205 kts | 173° |
| 2026-04-28 21:30 | 41.87139 | 8.61828 | 5002 ft | 206 kts | 204° |
| 2026-04-28 21:31 | 41.86061 | 8.60581 | 5006 ft | 209 kts | 237° |
| 2026-04-28 21:31 | 41.85670 | 8.58699 | 5007 ft | 216 kts | 270° |
| 2026-04-28 21:31 | 41.86151 | 8.56793 | 5003 ft | 222 kts | 306° |
| 2026-04-28 21:31 | 41.87242 | 8.55305 | 5010 ft | 225 kts | 315° |
| 2026-04-28 21:32 | 41.88382 | 8.53865 | 5010 ft | 225 kts | 315° |
| 2026-04-28 21:32 | 41.89512 | 8.52440 | 5006 ft | 226 kts | 315° |
| 2026-04-28 21:32 | 41.90662 | 8.51004 | 5004 ft | 226 kts | 318° |
| 2026-04-28 21:32 | 41.92067 | 8.50111 | 4998 ft | 227 kts | 354° |
| 2026-04-28 21:33 | 41.93594 | 8.50499 | 5001 ft | 225 kts | 33° |
| 2026-04-28 21:33 | 41.94632 | 8.51997 | 5004 ft | 220 kts | 70° |
| 2026-04-28 21:33 | 41.94834 | 8.53970 | 5007 ft | 213 kts | 104° |
| 2026-04-28 21:33 | 41.94192 | 8.55708 | 5006 ft | 208 kts | 136° |
| 2026-04-28 21:34 | 41.93146 | 8.57052 | 5009 ft | 208 kts | 139° |
| 2026-04-28 21:34 | 41.92089 | 8.58390 | 5010 ft | 209 kts | 139° |
| 2026-04-28 21:34 | 41.91032 | 8.59731 | 5008 ft | 209 kts | 139° |
| 2026-04-28 21:34 | 41.89991 | 8.61051 | 5007 ft | 209 kts | 140° |
| 2026-04-28 21:35 | 41.88758 | 8.62005 | 5000 ft | 205 kts | 168° |
| 2026-04-28 21:35 | 41.87352 | 8.61930 | 5006 ft | 206 kts | 199° |
| 2026-04-28 21:35 | 41.86196 | 8.60825 | 5007 ft | 209 kts | 231° |
| 2026-04-28 21:35 | 41.85679 | 8.59009 | 5007 ft | 215 kts | 265° |
| 2026-04-28 21:36 | 41.86028 | 8.57056 | 5003 ft | 221 kts | 300° |
| 2026-04-28 21:36 | 41.87178 | 8.55696 | 5002 ft | 226 kts | 337° |
| 2026-04-28 21:36 | 41.88710 | 8.55487 | 4842 ft | 224 kts | 16° |
| 2026-04-28 21:36 | 41.90006 | 8.56537 | 4581 ft | 218 kts | 53° |
| 2026-04-28 21:37 | 41.90595 | 8.58346 | 4323 ft | 211 kts | 88° |
| 2026-04-28 21:37 | 41.90550 | 8.60291 | 4058 ft | 209 kts | 96° |
| 2026-04-28 21:37 | 41.90458 | 8.62217 | 3919 ft | 203 kts | 96° |
| 2026-04-28 21:37 | 41.90367 | 8.64081 | 3790 ft | 198 kts | 96° |
| 2026-04-28 21:38 | 41.90277 | 8.65893 | 3685 ft | 189 kts | 96° |
| 2026-04-28 21:38 | 41.90189 | 8.67598 | 3570 ft | 177 kts | 97° |
| 2026-04-28 21:38 | 41.90092 | 8.69192 | 3408 ft | 170 kts | 97° |
| 2026-04-28 21:38 | 41.89982 | 8.70749 | 3215 ft | 165 kts | 98° |
| 2026-04-28 21:39 | 41.89966 | 8.72305 | 3097 ft | 173 kts | 81° |
| 2026-04-28 21:39 | 41.90332 | 8.73878 | 3096 ft | 179 kts | 68° |
| 2026-04-28 21:39 | 41.91012 | 8.75285 | 3095 ft | 182 kts | 46° |
| 2026-04-28 21:39 | 41.92110 | 8.76142 | 2936 ft | 186 kts | 21° |
| 2026-04-28 21:40 | 41.93303 | 8.76778 | 2785 ft | 181 kts | 27° |
| 2026-04-28 21:40 | 41.94406 | 8.77539 | 2715 ft | 176 kts | 31° |
| 2026-04-28 21:40 | 41.95461 | 8.78353 | 2480 ft | 173 kts | 30° |
| 2026-04-28 21:40 | 41.96507 | 8.79082 | 2157 ft | 164 kts | 29° |
| 2026-04-28 21:41 | 41.97306 | 8.79985 | 2068 ft | 146 kts | 68° |
| 2026-04-28 21:41 | 41.97205 | 8.81268 | 1974 ft | 144 kts | 121° |
| 2026-04-28 21:41 | 41.96382 | 8.82028 | 1558 ft | 149 kts | 165° |
| 2026-04-28 21:41 | 41.95302 | 8.82014 | 924 ft | 163 kts | 194° |
| 2026-04-28 21:42 | 41.94252 | 8.81430 | 412 ft | 162 kts | 207° |
| 2026-04-28 21:42 | 41.93272 | 8.80791 | 127 ft | 152 kts | 202° |
| 2026-04-28 21:42 | 41.92352 | 8.80228 | 27 ft | 137 kts | 204° |
| 2026-04-28 21:42 | 41.91634 | 8.79784 | 18 ft | 80 kts | 206° |
| 2026-04-28 21:43 | 41.91310 | 8.79562 | 22 ft | 26 kts | 201° |
| 2026-04-28 21:43 | 41.91253 | 8.79439 | 23 ft | 11 kts | 298° |
| 2026-04-28 21:43 | 41.91307 | 8.79390 | 23 ft | 8 kts | 333° |
| 2026-04-28 21:43 | 41.91355 | 8.79358 | 26 ft | 9 kts | 333° |
| 2026-04-28 21:44 | 41.91441 | 8.79332 | 28 ft | 17 kts | 6° |
| 2026-04-28 21:44 | 41.91572 | 8.79405 | 26 ft | 21 kts | 25° |
| 2026-04-28 21:44 | 41.91719 | 8.79497 | 26 ft | 27 kts | 22° |
| 2026-04-28 21:44 | 41.91855 | 8.79581 | 29 ft | 21 kts | 25° |
| 2026-04-28 21:45 | 41.91958 | 8.79646 | 26 ft | 9 kts | 25° |
| 2026-04-28 21:45 | 41.91997 | 8.79619 | 26 ft | 6 kts | 324° |
| 2026-04-28 21:45 | 41.92010 | 8.79613 | 26 ft | 0 kts | 342° |
| 2026-04-28 21:46 | 41.92009 | 8.79612 | 26 ft | 0 kts | 345° |